Boone County Airport
KHRO : now visible

Airfield :











YOU CAN JOIN US ON...

 
LOGIN :

Register | Disclaimer

   EN    FR    IT 

 









Legend :    VFR   Marginal VFR   IFR   Intensive IFR   Very Intensive IFR
Visi :
Ceiling :
>= 8 km
>= 3000ft
5 to 8 km
1000 to 3000 ft
1500m to 5 km
500 to 1000 ft
800 to 1500m
200 to 500 ft
< 800m
< 200 ft
Symbols :   Thunderstorms  Fog  Heavy snow  Heavy precipitations  Wind > 20 kt






- Airport Elevation : 1365 ft
- IATA code : HRO


KHRO - Boone County

CURRENT METAR :
  • 210953Z AUTO 00000KT 10SM BKN070 19/18 A3008 RMK AO2 SLP172 T01940178 $

EXPIRED METARs :
  • 210853Z AUTO 00000KT 10SM BKN050 OVC065 20/18 A3009 RMK AO2 SLP175 T02000178 56008 $
  • 210753Z AUTO 00000KT 10SM BKN110 19/17 A3009 RMK AO2 SLP176 T01940172 $
  • 210653Z AUTO 00000KT 10SM CLR 20/17 A3010 RMK AO2 SLP178 T02000172 $
  • 210553Z AUTO 00000KT 10SM BKN050 BKN120 19/17 A3012 RMK AO2 SLP185 T01940172 10244 20189 402830144 53005 $
  • 210453Z AUTO 00000KT 10SM FEW050 20/17 A3011 RMK AO2 SLP182 T02000167 $

TAF KHRO
Valid from the 21 at 06:00 until the 22 at 06:00 UTC


210526Z 2106/2206 11003KT P6SM SCT060 BKN250
FM210900 28003KT P6SM VCSH SCT050 OVC100
FM211200 09006KT P6SM VCSH SCT025 BKN040 OVC080
PROB30 2117/2123 5SM -SHRA BR BKN025
KZME FIR / North America



MET'MAP, your aeronautical weather chart ! - Copyright ORBIFLY December 2007 - Disclaimer

ORBIFLY MET'MAP TEAM :

Programming & Development : Alexandra Zaïnal
Original concept : Baudouin d'Aumeries
Technical & hardware support : Manuel Goepfert
Assistance : Marc-Olivier Méhu




SOURCES & CREDITS :

   NOAA       Earth
Advisory